»·PEaware :: AAL186 EIDW-EGLL

AAL186 :: EIDW-EGLL

FLIGHT INFORMATION

Flight Status: Arrived
Operator:
American Airlines
More flights by this operator :: More flights under this callsign
Pilot: Josh G. (4619)
Aircraft: AIRBUS A320
(A320)
More flights by this aircraft type
Origin: EIDW Dublin Intl
Ireland
Destination: EGLL Heathrow
United Kingdom
More flights between these airports :: More routes between these airports
Route: LIFFY UL975 WAL UY53 MUGRA
File this flight plan on PilotEdge
Remarks:
Altitude:
(Current/Filed)
35,000ft
Speed:
(Current/Filed)
450kts
Departed: 29-Oct-16 04:08 PM
Arrived: 29-Oct-16 05:03 PM
Distance/Time
Traveled:
242nm/0:55
Distance/Time
To Go:
Arrived

Flight Plot

Page will automatically refresh every two minutes.

Flight plan parsing failed; only flown route is shown


Map Options




Map Legend


Flown Route
Filed Route
Departure Airport
Arrival Airport
Navaid (VOR, NDB)
Fix

Horizontal Profiles

Position Reports

Time Latitude Longitude Heading Altitude Ground
Speed
29-Oct-16 15:49 53.423038 -6.243397 323 251ft 0kts
29-Oct-16 15:50 53.423038 -6.243397 323 251ft 0kts
29-Oct-16 15:51 53.423038 -6.243397 323 251ft 0kts
29-Oct-16 15:52 53.423038 -6.243397 323 251ft 0kts
29-Oct-16 15:53 53.423038 -6.243397 323 251ft 0kts
29-Oct-16 15:54 53.423038 -6.243397 323 251ft 0kts
29-Oct-16 15:55 53.423038 -6.243397 323 251ft 0kts
29-Oct-16 15:56 53.423038 -6.243397 323 251ft 0kts
29-Oct-16 15:57 53.422662 -6.242939 323 251ft 0kts
29-Oct-16 15:58 53.422306 -6.242506 323 250ft 0kts
29-Oct-16 15:59 53.422306 -6.242506 323 250ft 0kts
29-Oct-16 16:00 53.422397 -6.241872 168 251ft 5kts
29-Oct-16 16:01 53.421773 -6.245392 274 250ft 10kts
29-Oct-16 16:02 53.421121 -6.248264 229 250ft 16kts
29-Oct-16 16:03 53.421206 -6.266912 274 255ft 148kts
29-Oct-16 16:04 53.423939 -6.342932 273 2932ft 193kts
29-Oct-16 16:05 53.434169 -6.452302 298 5352ft 262kts
29-Oct-16 16:06 53.492793 -6.441409 73 8313ft 286kts
29-Oct-16 16:07 53.498372 -6.307748 90 10703ft 319kts
29-Oct-16 16:08 53.495629 -6.142799 92 11488ft 404kts
29-Oct-16 16:09 53.491400 -5.953632 92 14217ft 423kts
29-Oct-16 16:10 53.487176 -5.758650 94 16730ft 443kts
29-Oct-16 16:11 53.481859 -5.552323 94 18808ft 460kts
29-Oct-16 16:12 53.475543 -5.337772 94 20478ft 475kts
29-Oct-16 16:13 53.468870 -5.116182 94 22025ft 488kts
29-Oct-16 16:14 53.461714 -4.892810 94 23440ft 504kts
29-Oct-16 16:15 53.454628 -4.669359 93 24909ft 518kts
29-Oct-16 16:16 53.446086 -4.430759 94 26956ft 519kts
29-Oct-16 16:17 53.437359 -4.202496 94 28759ft 519kts
29-Oct-16 16:18 53.428137 -3.967082 94 30327ft 519kts
29-Oct-16 16:19 53.420373 -3.768541 96 31495ft 519kts
29-Oct-16 16:20 53.411527 -3.565898 97 32567ft 517kts
29-Oct-16 16:21 53.401437 -3.340190 96 33498ft 514kts
29-Oct-16 16:22 53.382965 -3.128571 122 33490ft 497kts
29-Oct-16 16:23 53.314856 -2.962474 131 33483ft 492kts
29-Oct-16 16:24 53.256827 -2.830920 131 33482ft 500kts
29-Oct-16 16:25 53.183374 -2.667678 132 33182ft 501kts
29-Oct-16 16:26 53.121674 -2.528682 128 32463ft 504kts
29-Oct-16 16:27 53.053985 -2.363506 128 31641ft 500kts
29-Oct-16 16:28 52.965235 -2.238006 150 30848ft 481kts
29-Oct-16 16:29 52.862542 -2.129777 151 29977ft 481kts
29-Oct-16 16:30 52.762233 -2.025703 151 29135ft 483kts
29-Oct-16 16:31 52.654543 -1.914647 151 28234ft 484kts
29-Oct-16 16:32 52.557471 -1.814019 151 27346ft 485kts
29-Oct-16 16:33 52.457017 -1.711461 151 26314ft 486kts
29-Oct-16 16:34 52.369470 -1.622713 151 25308ft 488kts
29-Oct-16 16:35 52.276017 -1.527235 150 22519ft 476kts
29-Oct-16 16:36 52.194631 -1.436864 140 20157ft 455kts
29-Oct-16 16:37 52.113434 -1.322257 141 18433ft 445kts
29-Oct-16 16:38 52.032312 -1.209571 141 16607ft 434kts
29-Oct-16 16:39 51.948094 -1.093254 141 14643ft 424kts
29-Oct-16 16:40 51.873230 -0.990738 140 11092ft 401kts
29-Oct-16 16:41 51.826108 -0.873303 117 10403ft 330kts
29-Oct-16 16:42 51.798242 -0.783087 117 10114ft 296kts
29-Oct-16 16:43 51.769893 -0.691008 116 9246ft 290kts
29-Oct-16 16:44 51.730853 -0.586914 151 7776ft 286kts
29-Oct-16 16:45 51.662170 -0.606169 203 6177ft 279kts
29-Oct-16 16:46 51.614223 -0.641498 203 4760ft 285kts
29-Oct-16 16:47 51.568935 -0.676944 206 3768ft 262kts
29-Oct-16 16:48 51.561282 -0.683050 206 3659ft 262kts
29-Oct-16 16:49 51.561282 -0.683050 206 3659ft 262kts
29-Oct-16 16:50 51.519797 -0.716292 207 3224ft 220kts
29-Oct-16 16:51 51.489203 -0.774277 266 2984ft 205kts
29-Oct-16 16:52 51.459630 -0.811897 142 2987ft 182kts
29-Oct-16 16:53 51.464030 -0.744552 65 2985ft 179kts
29-Oct-16 16:54 51.476537 -0.684083 87 2786ft 169kts
29-Oct-16 16:55 51.477508 -0.623607 88 1913ft 160kts
29-Oct-16 16:56 51.476964 -0.568777 88 1108ft 135kts
29-Oct-16 16:57 51.477407 -0.513889 89 502ft 136kts
29-Oct-16 16:58 51.477576 -0.466409 89 92ft 18kts
29-Oct-16 16:59 51.474783 -0.460652 203 91ft 18kts
29-Oct-16 17:00 51.477407 -0.541571 89 818ft 134kts
29-Oct-16 17:01 51.477536 -0.488604 88 163ft 136kts
29-Oct-16 17:02 51.477497 -0.501203 89 328ft 137kts
29-Oct-16 17:03 51.477480 -0.504412 89 370ft 137kts
29-Oct-16 17:04 51.477583 -0.464897 89 91ft 20kts
29-Oct-16 17:05 51.474278 -0.461697 232 92ft 16kts
29-Oct-16 17:06 51.473907 -0.462534 235 92ft 0kts
29-Oct-16 17:07 51.473907 -0.462534 235 92ft 0kts
29-Oct-16 17:08 51.473907 -0.462534 235 92ft 0kts
29-Oct-16 17:09 51.473907 -0.462534 235 92ft 0kts
29-Oct-16 17:10 51.473907 -0.462534 235 92ft 0kts

Navigation Log

Ident Type
Flight plan parsing failed, navigation log unavailable